createdAt,value
2023-01-01T00:01:21.910Z,40.20
2023-01-01T00:03:51.977Z,38.88
2023-01-01T00:06:22.151Z,33.80
2023-01-01T00:09:10.581Z,34.78
2023-01-01T00:11:38.760Z,45.92
2023-01-01T00:14:12.039Z,59.70
2023-01-01T00:16:42.559Z,51.28
2023-01-01T00:19:10.486Z,57.55
2023-01-01T00:21:38.336Z,53.47
2023-01-01T00:24:08.299Z,51.60
2023-01-01T00:26:36.317Z,52.95
2023-01-01T00:29:05.528Z,58.97
2023-01-01T00:31:33.451Z,60.92
2023-01-01T00:34:01.348Z,55.55
2023-01-01T00:36:30.354Z,55.38
2023-01-01T00:38:58.207Z,64.70
2023-01-01T00:41:26.055Z,63.08
2023-01-01T00:43:53.960Z,76.53
2023-01-01T00:46:21.922Z,71.00
2023-01-01T00:48:49.807Z,66.55
2023-01-01T00:51:17.728Z,67.13
2023-01-01T00:53:45.677Z,62.40
2023-01-01T00:56:13.557Z,75.65
2023-01-01T00:58:41.394Z,64.82
2023-01-01T01:01:09.797Z,68.22
2023-01-01T01:03:40.930Z,69.47
2023-01-01T01:06:13.157Z,68.28
2023-01-01T01:08:44.573Z,76.47
2023-01-01T01:11:17.228Z,73.15
2023-01-01T01:13:47.174Z,74.20
2023-01-01T01:16:20.893Z,72.88
2023-01-01T01:18:52.221Z,71.63
2023-01-01T01:21:22.878Z,75.50
2023-01-01T01:23:51.676Z,71.85
2023-01-01T01:26:24.740Z,76.72
2023-01-01T01:28:53.949Z,73.22
2023-01-01T01:31:24.711Z,62.03
2023-01-01T01:33:52.782Z,56.97
2023-01-01T01:36:21.295Z,58.00
2023-01-01T01:38:49.973Z,50.22
2023-01-01T01:41:27.838Z,49.28
2023-01-01T01:43:58.216Z,49.45
2023-01-01T01:46:32.846Z,48.85
2023-01-01T01:49:32.164Z,52.40
2023-01-01T01:52:02.167Z,47.65
2023-01-01T01:54:30.554Z,43.55
2023-01-01T01:57:02.821Z,52.47
2023-01-01T01:59:35.825Z,47.72
2023-01-01T02:02:08.270Z,54.13
2023-01-01T02:04:36.390Z,49.53
2023-01-01T02:07:04.998Z,49.08
2023-01-01T02:09:32.930Z,47.65
2023-01-01T02:12:00.855Z,49.22
2023-01-01T02:14:28.736Z,44.38
2023-01-01T02:17:00.502Z,39.33
2023-01-01T02:19:43.294Z,49.95
2023-01-01T02:22:29.119Z,46.55
2023-01-01T02:25:18.377Z,37.30
2023-01-01T02:27:51.842Z,38.08
2023-01-01T02:30:20.509Z,37.47
2023-01-01T02:32:55.129Z,34.88
2023-01-01T02:35:39.012Z,38.45
2023-01-01T02:38:25.339Z,38.20
2023-01-01T02:41:06.935Z,41.85
2023-01-01T02:43:34.881Z,48.53
2023-01-01T02:46:07.878Z,47.25
2023-01-01T02:48:47.883Z,45.03
2023-01-01T02:51:52.685Z,50.58
2023-01-01T02:54:20.687Z,42.28
2023-01-01T02:56:51.398Z,44.08
2023-01-01T03:00:19.421Z,44.88
2023-01-01T03:03:12.116Z,41.60
2023-01-01T03:06:17.901Z,46.80
2023-01-01T03:09:05.823Z,41.42
2023-01-01T03:12:14.932Z,41.53
2023-01-01T03:15:07.418Z,39.45
2023-01-01T03:17:35.374Z,48.60
2023-01-01T03:20:09.802Z,41.38
2023-01-01T03:25:11.133Z,42.88
2023-01-01T03:27:47.510Z,43.03
2023-01-01T03:30:18.181Z,42.90
2023-01-01T03:33:02.004Z,46.33
2023-01-01T03:36:08.028Z,44.17
2023-01-01T03:38:54.418Z,45.17
2023-01-01T03:41:36.807Z,35.45
2023-01-01T03:44:40.121Z,41.50
2023-01-01T03:47:08.165Z,43.75
2023-01-01T03:49:36.520Z,44.25
2023-01-01T03:52:36.577Z,41.20
2023-01-01T03:55:16.407Z,37.30
2023-01-01T03:58:16.212Z,45.22
2023-01-01T04:01:11.441Z,45.65
2023-01-01T04:03:41.831Z,43.65
2023-01-01T04:06:11.803Z,43.08
2023-01-01T04:08:39.897Z,44.42
2023-01-01T04:11:34.894Z,44.28
2023-01-01T04:14:02.764Z,43.80
2023-01-01T04:16:30.780Z,45.25
2023-01-01T04:18:58.726Z,42.30
2023-01-01T04:21:26.690Z,41.22
2023-01-01T04:23:54.562Z,44.42
2023-01-01T04:26:22.419Z,45.10
2023-01-01T04:28:50.258Z,44.42
2023-01-01T04:31:18.156Z,42.63
2023-01-01T04:33:46.044Z,47.85
2023-01-01T04:36:13.930Z,41.53
2023-01-01T04:38:41.778Z,43.72
2023-01-01T04:41:09.881Z,48.53
2023-01-01T04:43:37.706Z,52.45
2023-01-01T04:46:05.753Z,44.97
2023-01-01T04:48:35.743Z,43.67
2023-01-01T04:51:05.678Z,45.20
2023-01-01T04:53:34.935Z,44.05
2023-01-01T04:56:07.260Z,44.03
2023-01-01T04:58:37.002Z,37.92
2023-01-01T05:01:06.311Z,43.95
2023-01-01T05:03:34.597Z,47.45
2023-01-01T05:06:08.420Z,42.30
2023-01-01T05:08:38.808Z,46.03
2023-01-01T05:11:24.620Z,45.50
2023-01-01T05:13:55.194Z,39.95
2023-01-01T05:16:25.619Z,40.17
2023-01-01T05:18:53.802Z,46.63
2023-01-01T05:21:24.453Z,46.85
2023-01-01T05:23:57.101Z,47.72
2023-01-01T05:26:28.311Z,45.17
2023-01-01T05:28:57.319Z,46.50
2023-01-01T05:31:27.729Z,45.60
2023-01-01T05:33:56.102Z,45.40
2023-01-01T05:36:27.087Z,44.85
2023-01-01T05:38:55.385Z,45.28
2023-01-01T05:41:23.735Z,45.97
2023-01-01T05:43:52.632Z,44.05
2023-01-01T05:46:23.745Z,46.25
2023-01-01T05:48:53.558Z,45.83
2023-01-01T05:51:26.927Z,38.00
2023-01-01T05:53:55.965Z,40.03
2023-01-01T05:56:24.561Z,42.47
2023-01-01T05:58:52.797Z,48.60
2023-01-01T06:01:26.772Z,44.25
2023-01-01T06:03:56.932Z,48.30
2023-01-01T06:06:29.046Z,49.85
2023-01-01T06:09:02.425Z,43.70
2023-01-01T06:11:31.160Z,41.60
2023-01-01T06:14:01.022Z,41.80
2023-01-01T06:16:30.333Z,38.90
2023-01-01T06:18:59.070Z,51.15
2023-01-01T06:21:28.436Z,42.88
2023-01-01T06:23:58.457Z,42.60
2023-01-01T06:26:28.977Z,44.28
2023-01-01T06:28:57.779Z,40.17
2023-01-01T06:31:26.075Z,34.03
2023-01-01T06:33:54.049Z,38.45
2023-01-01T06:36:23.875Z,38.53
2023-01-01T06:38:55.602Z,40.10
2023-01-01T06:41:25.837Z,40.40
2023-01-01T06:43:56.450Z,36.40
2023-01-01T06:46:25.747Z,40.75
2023-01-01T06:49:05.511Z,35.80
2023-01-01T06:51:38.987Z,32.58
2023-01-01T06:54:08.199Z,37.97
2023-01-01T06:56:36.362Z,37.30
2023-01-01T06:59:05.003Z,33.53
2023-01-01T07:01:35.966Z,35.88
2023-01-01T07:04:06.506Z,35.28
2023-01-01T07:06:35.473Z,29.27
2023-01-01T07:09:04.260Z,33.08
2023-01-01T07:11:32.667Z,33.13
2023-01-01T07:14:03.799Z,37.08
2023-01-01T07:16:32.043Z,33.60
2023-01-01T07:19:01.408Z,34.28
2023-01-01T07:21:40.873Z,38.50
2023-01-01T07:24:12.183Z,35.65
2023-01-01T07:26:41.246Z,34.53
2023-01-01T07:29:09.385Z,39.28
2023-01-01T07:31:42.674Z,41.35
2023-01-01T07:34:16.899Z,38.50
2023-01-01T07:39:12.672Z,40.75
2023-01-01T07:41:40.504Z,35.95
2023-01-01T07:44:08.354Z,39.88
2023-01-01T07:46:37.163Z,43.33
2023-01-01T07:49:05.296Z,40.17
2023-01-01T07:51:33.213Z,38.90
2023-01-01T07:54:06.629Z,41.90
2023-01-01T07:56:36.339Z,39.03
2023-01-01T07:59:04.561Z,35.25
2023-01-01T08:01:36.427Z,43.88
2023-01-01T08:04:05.326Z,39.90
2023-01-01T08:06:33.275Z,43.20
2023-01-01T08:09:01.091Z,37.67
2023-01-01T08:11:29.754Z,37.38
2023-01-01T08:13:57.668Z,38.92
2023-01-01T08:16:25.573Z,32.03
2023-01-01T08:18:53.501Z,35.38
2023-01-01T08:21:21.377Z,31.95
2023-01-01T08:23:49.344Z,36.90
2023-01-01T08:26:18.412Z,44.35
2023-01-01T08:28:47.216Z,41.58
2023-01-01T08:31:17.834Z,41.55
2023-01-01T08:33:45.963Z,38.97
2023-01-01T08:36:14.993Z,44.38
2023-01-01T08:38:43.703Z,47.03
2023-01-01T08:41:11.551Z,49.65
2023-01-01T08:43:39.700Z,54.95
2023-01-01T08:46:07.665Z,54.17
2023-01-01T08:48:35.555Z,62.58
2023-01-01T08:51:03.477Z,63.25
2023-01-01T08:53:32.524Z,57.38
2023-01-01T08:56:07.391Z,70.03
2023-01-01T08:58:39.998Z,67.10
2023-01-01T09:01:08.990Z,71.38
2023-01-01T09:03:37.317Z,74.35
2023-01-01T09:06:05.261Z,71.00
2023-01-01T09:08:33.213Z,65.13
2023-01-01T09:11:02.982Z,94.72
2023-01-01T09:13:31.626Z,74.57
2023-01-01T09:15:59.919Z,108.05
2023-01-01T09:18:27.882Z,78.38
2023-01-01T09:20:55.691Z,78.65
2023-01-01T09:23:23.575Z,66.82
2023-01-01T09:25:51.684Z,66.57
2023-01-01T09:28:25.479Z,65.90
2023-01-01T09:30:53.985Z,64.93
2023-01-01T09:33:21.922Z,65.38
2023-01-01T09:35:49.814Z,62.67
2023-01-01T09:38:17.653Z,67.85
2023-01-01T09:41:10.223Z,63.05
2023-01-01T09:44:04.517Z,59.05
2023-01-01T09:46:32.680Z,66.28
2023-01-01T09:49:06.891Z,58.53
2023-01-01T09:54:25.131Z,53.47
2023-01-01T09:56:58.052Z,64.65
2023-01-01T09:59:27.052Z,62.65
2023-01-01T10:02:03.937Z,60.17
2023-01-01T10:05:00.104Z,62.30
2023-01-01T10:07:50.774Z,58.70
2023-01-01T10:10:41.024Z,58.08
2023-01-01T10:13:35.087Z,60.97
2023-01-01T10:16:15.996Z,56.80
2023-01-01T10:18:49.406Z,57.78
2023-01-01T10:21:24.235Z,58.00
2023-01-01T10:24:01.307Z,53.55
2023-01-01T10:26:33.298Z,54.38
2023-01-01T10:29:19.587Z,55.13
2023-01-01T10:31:48.281Z,58.15
2023-01-01T10:34:17.811Z,60.40
2023-01-01T10:36:46.256Z,52.85
2023-01-01T10:39:18.388Z,52.53
2023-01-01T10:41:47.163Z,52.88
2023-01-01T10:44:32.965Z,54.17
2023-01-01T10:47:22.974Z,55.97
2023-01-01T10:49:58.088Z,54.50
2023-01-01T10:52:31.853Z,56.20
2023-01-01T10:55:00.974Z,52.05
2023-01-01T10:57:31.723Z,53.55
2023-01-01T11:00:24.740Z,51.05
2023-01-01T11:03:11.279Z,50.15
2023-01-01T11:05:39.389Z,54.03
2023-01-01T11:08:19.238Z,50.10
2023-01-01T11:10:52.274Z,53.25
2023-01-01T11:13:21.961Z,57.25
2023-01-01T11:15:50.423Z,51.00
2023-01-01T11:18:24.094Z,50.63
2023-01-01T11:20:57.665Z,49.85
2023-01-01T11:23:36.088Z,51.40
2023-01-01T11:26:12.852Z,50.60
2023-01-01T11:28:41.790Z,47.72
2023-01-01T11:31:26.955Z,52.55
2023-01-01T11:33:56.814Z,53.78
2023-01-01T11:36:28.397Z,49.42
2023-01-01T11:39:26.717Z,54.38
2023-01-01T11:41:57.630Z,51.67
2023-01-01T11:44:38.358Z,53.38
2023-01-01T11:47:07.853Z,62.05
2023-01-01T11:49:35.960Z,74.43
2023-01-01T11:52:27.928Z,69.25
2023-01-01T11:55:03.987Z,56.42
2023-01-01T11:57:32.053Z,111.93
2023-01-01T12:00:04.155Z,58.13
2023-01-01T12:02:53.428Z,47.60
2023-01-01T12:05:25.775Z,54.92
2023-01-01T12:07:55.341Z,53.80
2023-01-01T12:10:33.712Z,52.25
2023-01-01T12:13:08.329Z,52.05
2023-01-01T12:15:40.737Z,57.30
2023-01-01T12:18:31.747Z,56.63
2023-01-01T12:21:12.058Z,58.13
2023-01-01T12:23:40.589Z,52.50
2023-01-01T12:27:11.130Z,54.38
2023-01-01T12:30:12.391Z,59.67
2023-01-01T12:33:08.074Z,53.53
2023-01-01T12:35:53.276Z,58.10
2023-01-01T12:38:44.957Z,53.55
2023-01-01T12:41:38.378Z,56.47
2023-01-01T12:44:37.309Z,54.47
2023-01-01T12:47:26.835Z,53.65
2023-01-01T12:50:09.357Z,64.57
2023-01-01T12:53:11.250Z,65.18
2023-01-01T12:55:59.914Z,57.50
2023-01-01T12:58:42.606Z,59.65
2023-01-01T13:01:18.037Z,62.13
2023-01-01T13:03:51.056Z,61.60
2023-01-01T13:06:28.579Z,57.08
2023-01-01T13:09:05.453Z,55.90
2023-01-01T13:11:48.745Z,64.60
2023-01-01T13:14:23.526Z,59.15
2023-01-01T13:16:57.981Z,57.88
2023-01-01T13:19:34.908Z,54.88
2023-01-01T13:22:26.957Z,53.92
2023-01-01T13:25:13.195Z,54.70
2023-01-01T13:27:56.794Z,57.13
2023-01-01T13:30:41.620Z,57.75
2023-01-01T13:33:31.442Z,54.97
2023-01-01T13:36:09.105Z,57.80
2023-01-01T13:38:52.700Z,55.50
2023-01-01T13:41:29.803Z,68.30
2023-01-01T13:44:15.102Z,58.67
2023-01-01T13:46:44.574Z,56.58
2023-01-01T13:49:48.370Z,60.63
2023-01-01T13:52:23.062Z,55.28
2023-01-01T13:55:09.700Z,59.40
2023-01-01T13:57:55.459Z,58.20
2023-01-01T14:00:27.657Z,55.10
2023-01-01T14:03:03.978Z,54.63
2023-01-01T14:05:40.945Z,58.28
2023-01-01T14:09:01.152Z,64.25
2023-01-01T14:11:29.717Z,55.60
2023-01-01T14:13:57.991Z,59.42
2023-01-01T14:16:28.440Z,59.50
2023-01-01T14:19:01.635Z,58.92
2023-01-01T14:21:34.627Z,57.10
2023-01-01T14:24:06.892Z,58.70
2023-01-01T14:26:39.441Z,58.58
2023-01-01T14:29:10.311Z,61.90
2023-01-01T14:31:45.403Z,67.57
2023-01-01T14:34:24.976Z,65.38
2023-01-01T14:36:59.236Z,63.63
2023-01-01T14:39:35.685Z,63.92
2023-01-01T14:42:08.694Z,65.65
2023-01-01T14:44:42.272Z,61.08
2023-01-01T14:47:34.632Z,60.30
2023-01-01T14:50:12.031Z,57.22
2023-01-01T14:52:40.751Z,62.47
2023-01-01T14:55:19.855Z,65.15
2023-01-01T14:57:58.210Z,67.18
2023-01-01T15:00:31.566Z,72.63
2023-01-01T15:03:21.341Z,69.18
2023-01-01T15:06:04.187Z,59.80
2023-01-01T15:08:32.245Z,63.60
2023-01-01T15:11:03.900Z,61.08
2023-01-01T15:13:31.833Z,64.85
2023-01-01T15:16:17.642Z,69.90
2023-01-01T15:18:47.236Z,58.97
2023-01-01T15:21:33.761Z,97.97
2023-01-01T15:24:06.093Z,65.68
2023-01-01T15:26:41.463Z,60.13
2023-01-01T15:29:14.652Z,58.65
2023-01-01T15:31:50.138Z,63.47
2023-01-01T15:34:27.525Z,57.35
2023-01-01T15:37:05.879Z,61.53
2023-01-01T15:39:33.920Z,57.90
2023-01-01T15:42:02.581Z,54.70
2023-01-01T15:44:35.336Z,57.45
2023-01-01T15:47:14.037Z,55.58
2023-01-01T15:49:42.304Z,55.88
2023-01-01T15:52:27.587Z,56.88
2023-01-01T15:54:55.629Z,54.28
2023-01-01T15:57:24.457Z,54.15
2023-01-01T15:59:55.626Z,59.78
2023-01-01T16:02:32.849Z,59.67
2023-01-01T16:05:01.083Z,57.17
2023-01-01T16:07:29.412Z,52.67
2023-01-01T16:09:58.373Z,55.40
2023-01-01T16:12:29.129Z,54.05
2023-01-01T16:14:57.900Z,56.25
2023-01-01T16:17:25.873Z,52.42
2023-01-01T16:19:55.089Z,52.20
2023-01-01T16:22:23.064Z,53.42
2023-01-01T16:24:50.910Z,54.72
2023-01-01T16:27:19.514Z,58.83
2023-01-01T16:29:54.318Z,52.35
2023-01-01T16:32:22.737Z,61.78
2023-01-01T16:34:50.682Z,56.85
2023-01-01T16:37:22.931Z,56.78
2023-01-01T16:39:51.018Z,58.60
2023-01-01T16:42:19.028Z,63.83
2023-01-01T16:44:46.999Z,56.03
2023-01-01T16:47:14.964Z,61.00
2023-01-01T16:49:42.890Z,55.47
2023-01-01T16:52:11.297Z,61.97
2023-01-01T16:54:40.350Z,58.40
2023-01-01T16:57:08.270Z,57.28
2023-01-01T16:59:36.399Z,54.15
2023-01-01T17:02:04.846Z,56.20
2023-01-01T17:04:32.863Z,57.55
2023-01-01T17:07:01.024Z,61.55
2023-01-01T17:09:30.222Z,54.65
2023-01-01T17:11:58.399Z,58.10
2023-01-01T17:14:26.634Z,58.20
2023-01-01T17:16:56.941Z,58.42
2023-01-01T17:19:27.344Z,61.28
2023-01-01T17:21:55.606Z,55.08
2023-01-01T17:24:24.814Z,52.08
2023-01-01T17:26:55.678Z,60.13
2023-01-01T17:29:25.362Z,65.30
2023-01-01T17:31:53.552Z,59.85
2023-01-01T17:34:21.825Z,63.08
2023-01-01T17:36:49.959Z,59.58
2023-01-01T17:39:17.949Z,60.95
2023-01-01T17:41:47.486Z,57.42
2023-01-01T17:44:15.391Z,57.72
2023-01-01T17:46:44.800Z,55.67
2023-01-01T17:49:15.527Z,57.03
2023-01-01T17:51:43.956Z,56.10
2023-01-01T17:54:14.265Z,56.15
2023-01-01T17:56:42.464Z,54.60
2023-01-01T17:59:11.174Z,54.55
2023-01-01T18:01:41.801Z,56.45
2023-01-01T18:04:11.283Z,50.72
2023-01-01T18:06:43.121Z,47.97
2023-01-01T18:09:14.631Z,54.03
2023-01-01T18:11:43.614Z,51.78
2023-01-01T18:14:12.455Z,58.63
2023-01-01T18:16:41.993Z,60.78
2023-01-01T18:19:10.127Z,45.30
2023-01-01T18:21:38.303Z,52.17
2023-01-01T18:24:13.968Z,49.80
2023-01-01T18:26:43.368Z,52.28
2023-01-01T18:29:11.612Z,48.60
2023-01-01T18:31:40.142Z,48.45
2023-01-01T18:34:08.393Z,47.65
2023-01-01T18:36:36.666Z,45.83
2023-01-01T18:39:27.952Z,43.97
2023-01-01T18:42:21.711Z,51.28
2023-01-01T18:44:50.043Z,53.25
2023-01-01T18:47:20.663Z,49.28
2023-01-01T18:50:03.774Z,49.97
2023-01-01T18:52:33.704Z,48.80
2023-01-01T18:55:13.425Z,46.80
2023-01-01T18:57:41.950Z,46.53
2023-01-01T19:00:36.847Z,52.50
2023-01-01T19:03:14.137Z,47.28
2023-01-01T19:05:42.629Z,49.25
2023-01-01T19:08:17.353Z,47.60
2023-01-01T19:11:09.668Z,45.92
2023-01-01T19:13:42.242Z,44.55
2023-01-01T19:16:13.633Z,40.08
2023-01-01T19:18:46.265Z,43.58
2023-01-01T19:21:14.505Z,51.30
2023-01-01T19:23:45.908Z,47.22
2023-01-01T19:26:28.453Z,42.70
2023-01-01T19:29:03.766Z,48.95
2023-01-01T19:31:32.185Z,51.78
2023-01-01T19:34:00.181Z,51.60
2023-01-01T19:36:28.956Z,44.85
2023-01-01T19:38:57.198Z,45.67
2023-01-01T19:41:25.428Z,42.92
2023-01-01T19:43:53.681Z,42.55
2023-01-01T19:46:21.650Z,46.78
2023-01-01T19:48:49.836Z,44.08
2023-01-01T19:51:18.098Z,45.72
2023-01-01T19:53:46.627Z,42.70
2023-01-01T19:56:14.953Z,43.88
2023-01-01T19:58:43.339Z,43.13
2023-01-01T20:01:11.942Z,40.42
2023-01-01T20:03:54.256Z,43.53
2023-01-01T20:06:23.183Z,44.53
2023-01-01T20:08:51.143Z,47.35
2023-01-01T20:11:20.061Z,48.15
2023-01-01T20:13:48.689Z,46.40
2023-01-01T20:16:16.846Z,41.17
2023-01-01T20:18:46.336Z,45.00
2023-01-01T20:21:32.821Z,47.47
2023-01-01T20:24:01.117Z,46.85
2023-01-01T20:26:30.784Z,48.50
2023-01-01T20:29:19.032Z,44.28
2023-01-01T20:31:49.456Z,41.47
2023-01-01T20:34:17.581Z,45.15
2023-01-01T20:37:07.732Z,43.17
2023-01-01T20:39:40.714Z,47.60
2023-01-01T20:42:09.530Z,47.75
2023-01-01T20:44:39.091Z,48.20
2023-01-01T20:47:08.575Z,47.15
2023-01-01T20:49:38.850Z,48.60
2023-01-01T20:52:10.021Z,45.30
2023-01-01T20:54:41.055Z,49.17
2023-01-01T20:57:11.693Z,49.22
2023-01-01T20:59:40.898Z,42.22
2023-01-01T21:02:12.679Z,50.35
2023-01-01T21:04:44.691Z,46.20
2023-01-01T21:07:14.755Z,44.75
2023-01-01T21:09:44.601Z,45.60
2023-01-01T21:12:16.320Z,45.47
2023-01-01T21:14:44.346Z,44.45
2023-01-01T21:17:22.327Z,59.47
2023-01-01T21:19:54.833Z,44.30
2023-01-01T21:22:22.939Z,43.88
2023-01-01T21:24:54.785Z,49.50
2023-01-01T21:27:34.273Z,48.13
2023-01-01T21:30:11.957Z,44.00
2023-01-01T21:32:43.783Z,48.35
2023-01-01T21:35:31.277Z,50.63
2023-01-01T21:41:13.424Z,47.92
2023-01-01T21:43:54.241Z,50.85
2023-01-01T21:46:24.873Z,52.15
2023-01-01T21:49:02.075Z,49.30
2023-01-01T21:51:42.453Z,55.45
2023-01-01T21:54:10.560Z,56.65
2023-01-01T21:56:40.826Z,53.20
2023-01-01T21:59:28.584Z,51.58
2023-01-01T22:02:29.114Z,49.22
2023-01-01T22:04:59.485Z,47.35
2023-01-01T22:07:56.936Z,47.13
2023-01-01T22:10:22.591Z,58.13
2023-01-01T22:12:58.751Z,46.03
2023-01-01T22:15:36.031Z,40.53
2023-01-01T22:18:09.580Z,43.35
2023-01-01T22:20:43.323Z,46.50
2023-01-01T22:23:23.358Z,45.03
2023-01-01T22:25:52.610Z,46.83
2023-01-01T22:28:33.510Z,45.70
2023-01-01T22:31:02.338Z,49.55
2023-01-01T22:33:30.026Z,43.35
2023-01-01T22:35:58.308Z,46.03
2023-01-01T22:38:33.395Z,46.42
2023-01-01T22:41:01.609Z,43.33
2023-01-01T22:43:36.521Z,47.17
2023-01-01T22:46:36.746Z,45.15
2023-01-01T22:49:23.227Z,53.65
2023-01-01T22:51:54.964Z,48.60
2023-01-01T22:54:22.816Z,45.20
2023-01-01T22:56:50.727Z,46.47
2023-01-01T22:59:18.505Z,47.28
2023-01-01T23:01:46.327Z,47.55
2023-01-01T23:04:16.051Z,50.55
2023-01-01T23:06:44.964Z,44.60
2023-01-01T23:09:13.131Z,47.33
2023-01-01T23:11:41.029Z,47.10
2023-01-01T23:14:27.763Z,51.17
2023-01-01T23:16:55.633Z,50.25
2023-01-01T23:19:23.338Z,55.35
2023-01-01T23:21:51.272Z,48.88
2023-01-01T23:24:21.801Z,46.38
2023-01-01T23:26:51.359Z,53.90
2023-01-01T23:29:21.252Z,51.40
2023-01-01T23:31:49.366Z,46.80
2023-01-01T23:34:17.138Z,46.03
2023-01-01T23:36:45.111Z,54.55
2023-01-01T23:39:12.819Z,54.35
2023-01-01T23:41:40.710Z,52.38
2023-01-01T23:44:08.556Z,48.45
2023-01-01T23:46:38.630Z,48.33
2023-01-01T23:49:07.169Z,50.83
2023-01-01T23:51:35.638Z,53.65
2023-01-01T23:54:03.539Z,51.55
2023-01-01T23:56:31.314Z,52.97
2023-01-01T23:58:58.989Z,51.97
